createdAt,value
2022-11-28T00:00:29.194Z,7.20
2022-11-28T00:03:31.385Z,7.20
2022-11-28T00:06:40.400Z,7.20
2022-11-28T00:09:42.259Z,7.20
2022-11-28T00:12:43.911Z,7.20
2022-11-28T00:15:45.565Z,7.10
2022-11-28T00:18:48.186Z,7.10
2022-11-28T00:21:49.900Z,7.10
2022-11-28T00:24:51.633Z,7.00
2022-11-28T00:27:53.328Z,7.00
2022-11-28T00:30:54.979Z,7.00
2022-11-28T00:33:57.051Z,7.00
2022-11-28T00:36:58.732Z,7.10
2022-11-28T00:40:00.354Z,7.00
2022-11-28T00:43:02.000Z,7.10
2022-11-28T00:46:03.982Z,7.10
2022-11-28T00:49:06.067Z,7.10
2022-11-28T00:52:07.966Z,7.10
2022-11-28T00:55:09.788Z,7.10
2022-11-28T00:58:11.463Z,7.20
2022-11-28T01:01:27.101Z,7.10
2022-11-28T01:04:28.802Z,7.10
2022-11-28T01:07:33.141Z,7.10
2022-11-28T01:10:34.924Z,7.10
2022-11-28T01:13:36.550Z,7.20
2022-11-28T01:16:38.623Z,7.10
2022-11-28T01:19:40.323Z,7.10
2022-11-28T01:22:42.108Z,7.00
2022-11-28T01:25:43.738Z,7.00
2022-11-28T01:28:45.921Z,7.10
2022-11-28T01:31:47.633Z,7.10
2022-11-28T01:34:49.362Z,7.20
2022-11-28T01:37:51.112Z,7.10
2022-11-28T01:40:53.317Z,7.20
2022-11-28T01:44:00.797Z,7.20
2022-11-28T01:47:02.526Z,7.20
2022-11-28T01:50:06.492Z,7.20
2022-11-28T01:53:11.432Z,7.20
2022-11-28T01:56:20.234Z,7.20
2022-11-28T01:59:26.405Z,7.20
2022-11-28T02:02:44.953Z,7.30
2022-11-28T02:05:48.740Z,7.20
2022-11-28T02:08:55.147Z,7.20
2022-11-28T02:12:07.067Z,7.30
2022-11-28T02:15:43.579Z,7.30
2022-11-28T02:19:06.978Z,7.30
2022-11-28T02:22:45.089Z,7.30
2022-11-28T02:26:37.226Z,7.30
2022-11-28T02:30:02.836Z,7.30
2022-11-28T02:33:16.302Z,7.30
2022-11-28T02:36:29.349Z,7.30
2022-11-28T02:39:34.127Z,7.40
2022-11-28T02:43:01.336Z,7.40
2022-11-28T02:46:16.572Z,7.30
2022-11-28T02:49:34.029Z,7.30
2022-11-28T02:52:59.380Z,7.40
2022-11-28T02:56:16.145Z,7.40
2022-11-28T02:59:37.349Z,7.00
2022-11-28T03:02:51.265Z,7.50
2022-11-28T03:06:29.358Z,7.40
2022-11-28T03:10:04.841Z,7.40
2022-11-28T03:13:13.543Z,7.60
2022-11-28T03:16:41.477Z,7.50
2022-11-28T03:20:04.533Z,7.40
2022-11-28T03:23:28.722Z,7.40
2022-11-28T03:26:33.668Z,7.40
2022-11-28T03:29:43.265Z,7.40
2022-11-28T03:32:47.327Z,7.50
2022-11-28T03:35:56.004Z,7.50
2022-11-28T03:39:29.598Z,7.50
2022-11-28T03:42:36.477Z,7.50
2022-11-28T03:45:41.753Z,7.50
2022-11-28T03:48:48.426Z,7.50
2022-11-28T03:51:57.041Z,7.40
2022-11-28T03:55:10.867Z,7.50
2022-11-28T03:58:26.227Z,7.50
2022-11-28T04:01:41.136Z,7.40
2022-11-28T04:04:51.598Z,7.40
2022-11-28T04:08:22.007Z,7.40
2022-11-28T04:11:31.805Z,7.50
2022-11-28T04:14:49.218Z,7.40
2022-11-28T04:18:21.504Z,7.40
2022-11-28T04:21:47.361Z,7.40
2022-11-28T04:24:54.059Z,7.40
2022-11-28T04:28:03.184Z,7.40
2022-11-28T04:31:07.194Z,7.40
2022-11-28T04:34:11.555Z,7.40
2022-11-28T04:37:15.361Z,7.30
2022-11-28T04:40:19.047Z,7.40
2022-11-28T04:43:28.832Z,7.40
2022-11-28T04:46:36.408Z,7.40
2022-11-28T04:49:38.498Z,7.30
2022-11-28T04:53:00.509Z,7.40
2022-11-28T04:56:12.581Z,7.30
2022-11-28T04:59:15.341Z,7.30
2022-11-28T05:02:19.460Z,7.40
2022-11-28T05:05:25.170Z,7.30
2022-11-28T05:08:26.912Z,7.40
2022-11-28T05:11:29.102Z,7.40
2022-11-28T05:14:30.736Z,7.30
2022-11-28T05:17:32.380Z,7.30
2022-11-28T05:20:34.882Z,7.30
2022-11-28T05:23:38.774Z,7.40
2022-11-28T05:26:40.498Z,7.40
2022-11-28T05:29:48.086Z,7.30
2022-11-28T05:32:53.516Z,7.30
2022-11-28T05:35:55.655Z,7.30
2022-11-28T05:38:57.416Z,7.40
2022-11-28T05:41:59.256Z,7.40
2022-11-28T05:45:01.597Z,7.40
2022-11-28T05:48:03.389Z,7.40
2022-11-28T05:51:06.040Z,7.40
2022-11-28T05:54:07.867Z,7.40
2022-11-28T05:57:09.614Z,7.30
2022-11-28T06:00:12.123Z,7.30
2022-11-28T06:03:13.795Z,7.30
2022-11-28T06:06:22.169Z,7.20
2022-11-28T06:09:25.972Z,7.20
2022-11-28T06:12:27.988Z,7.30
2022-11-28T06:15:34.926Z,7.30
2022-11-28T06:18:40.359Z,7.20
2022-11-28T06:21:42.085Z,7.10
2022-11-28T06:24:43.742Z,7.20
2022-11-28T06:27:45.467Z,7.10
2022-11-28T06:30:47.142Z,7.10
2022-11-28T06:33:49.287Z,7.10
2022-11-28T06:36:51.083Z,7.20
2022-11-28T06:39:52.760Z,7.20
2022-11-28T06:42:54.526Z,7.10
2022-11-28T06:45:56.305Z,7.10
2022-11-28T06:48:58.139Z,7.10
2022-11-28T06:51:59.955Z,7.10
2022-11-28T06:55:01.868Z,7.10
2022-11-28T06:58:03.672Z,7.10
2022-11-28T07:01:07.146Z,7.00
2022-11-28T07:04:10.222Z,7.00
2022-11-28T07:07:16.321Z,7.10
2022-11-28T07:10:18.388Z,7.00
2022-11-28T07:13:20.055Z,7.00
2022-11-28T07:16:24.876Z,7.10
2022-11-28T07:19:26.588Z,7.00
2022-11-28T07:22:28.376Z,7.00
2022-11-28T07:25:30.037Z,7.00
2022-11-28T07:28:32.466Z,7.10
2022-11-28T07:31:34.265Z,7.10
2022-11-28T07:34:36.102Z,7.10
2022-11-28T07:37:37.860Z,7.10
2022-11-28T07:40:39.579Z,7.10
2022-11-28T07:43:45.479Z,7.10
2022-11-28T07:46:47.273Z,7.10
2022-11-28T07:49:48.977Z,7.10
2022-11-28T07:52:51.833Z,7.10
2022-11-28T07:55:53.523Z,7.10
2022-11-28T07:58:57.943Z,7.20
2022-11-28T08:02:03.850Z,7.30
2022-11-28T08:05:06.016Z,7.30
2022-11-28T08:08:07.841Z,7.30
2022-11-28T08:11:10.106Z,7.40
2022-11-28T08:14:11.912Z,7.40
2022-11-28T08:17:13.601Z,7.40
2022-11-28T08:20:15.313Z,7.40
2022-11-28T08:23:16.996Z,7.40
2022-11-28T08:26:23.068Z,7.30
2022-11-28T08:29:26.558Z,7.40
2022-11-28T08:32:30.281Z,7.40
2022-11-28T08:35:31.997Z,7.50
2022-11-28T08:38:33.707Z,7.50
2022-11-28T08:41:35.409Z,7.50
2022-11-28T08:44:37.176Z,7.60
2022-11-28T08:47:38.852Z,7.60
2022-11-28T08:50:48.256Z,7.70
2022-11-28T08:53:54.993Z,7.70
2022-11-28T08:57:01.295Z,7.60
2022-11-28T09:00:04.325Z,7.70
2022-11-28T09:03:06.199Z,7.70
2022-11-28T09:06:08.055Z,7.70
2022-11-28T09:09:09.953Z,7.80
2022-11-28T09:12:11.755Z,7.80
2022-11-28T09:15:13.605Z,7.80
2022-11-28T09:18:15.794Z,7.80
2022-11-28T09:21:17.470Z,7.80
2022-11-28T09:24:19.135Z,7.80
2022-11-28T09:27:31.102Z,7.80
2022-11-28T09:30:44.009Z,8.20
2022-11-28T09:34:12.280Z,8.00
2022-11-28T09:37:48.982Z,7.90
2022-11-28T09:41:33.653Z,8.00
2022-11-28T09:44:58.308Z,8.00
2022-11-28T09:48:08.899Z,8.00
2022-11-28T09:51:36.466Z,8.00
2022-11-28T09:54:52.195Z,8.10
2022-11-28T09:57:55.440Z,8.10
2022-11-28T10:01:12.670Z,8.10
2022-11-28T10:04:33.180Z,8.20
2022-11-28T10:08:05.188Z,8.20
2022-11-28T10:11:39.239Z,8.20
2022-11-28T10:15:09.223Z,8.20
2022-11-28T10:18:29.572Z,8.20
2022-11-28T10:21:38.666Z,8.20
2022-11-28T10:24:46.162Z,8.20
2022-11-28T10:27:49.065Z,8.20
2022-11-28T10:31:02.077Z,8.20
2022-11-28T10:34:17.030Z,8.20
2022-11-28T10:37:26.727Z,8.30
2022-11-28T10:40:41.415Z,8.30
2022-11-28T10:43:59.290Z,8.30
2022-11-28T10:47:14.153Z,8.30
2022-11-28T10:50:39.064Z,8.30
2022-11-28T10:54:15.587Z,8.30
2022-11-28T10:58:00.195Z,8.30
2022-11-28T11:01:02.807Z,8.30
2022-11-28T11:04:05.650Z,8.30
2022-11-28T11:07:29.743Z,8.30
2022-11-28T11:11:10.659Z,8.30
2022-11-28T11:14:12.345Z,8.40
2022-11-28T11:17:36.561Z,8.40
2022-11-28T11:20:40.422Z,8.30
2022-11-28T11:23:43.090Z,8.30
2022-11-28T11:26:47.474Z,8.30
2022-11-28T11:29:51.685Z,8.30
2022-11-28T11:32:54.860Z,8.30
2022-11-28T11:35:56.643Z,8.30
2022-11-28T11:39:19.589Z,8.30
2022-11-28T11:42:30.941Z,8.30
2022-11-28T11:45:34.846Z,8.30
2022-11-28T11:48:42.456Z,8.30
2022-11-28T11:51:44.120Z,8.30
2022-11-28T11:54:57.503Z,8.30
2022-11-28T11:58:05.745Z,8.30
2022-11-28T12:01:08.550Z,8.30
2022-11-28T12:04:43.928Z,8.30
2022-11-28T12:07:56.920Z,8.30
2022-11-28T12:11:20.793Z,8.30
2022-11-28T12:14:34.797Z,8.30
2022-11-28T12:18:07.677Z,8.30
2022-11-28T12:21:37.695Z,8.30
2022-11-28T12:24:46.858Z,8.30
2022-11-28T12:28:18.461Z,8.30
2022-11-28T12:31:39.254Z,8.30
2022-11-28T12:35:09.095Z,8.30
2022-11-28T12:38:36.208Z,8.30
2022-11-28T12:42:06.216Z,8.30
2022-11-28T12:45:13.978Z,8.20
2022-11-28T12:48:41.160Z,8.30
2022-11-28T12:52:24.408Z,8.20
2022-11-28T12:55:50.967Z,8.20
2022-11-28T12:59:33.891Z,8.20
2022-11-28T13:02:53.569Z,8.20
2022-11-28T13:06:11.986Z,8.20
2022-11-28T13:09:36.620Z,8.30
2022-11-28T13:12:49.680Z,8.30
2022-11-28T13:16:27.187Z,8.30
2022-11-28T13:20:14.758Z,8.20
2022-11-28T13:23:23.961Z,8.20
2022-11-28T13:26:58.604Z,8.20
2022-11-28T13:30:19.046Z,8.30
2022-11-28T13:33:43.095Z,8.30
2022-11-28T13:40:41.192Z,8.20
2022-11-28T13:44:02.619Z,8.30
2022-11-28T13:47:23.330Z,8.30
2022-11-28T13:50:25.167Z,8.40
2022-11-28T13:53:26.927Z,8.40
2022-11-28T13:56:28.594Z,8.40
2022-11-28T13:59:31.154Z,8.50
2022-11-28T14:02:41.915Z,8.40
2022-11-28T14:05:44.109Z,8.30
2022-11-28T14:08:47.763Z,8.30
2022-11-28T14:12:38.771Z,8.30
2022-11-28T14:15:40.443Z,8.30
2022-11-28T14:19:24.528Z,8.30
2022-11-28T14:22:52.811Z,8.30
2022-11-28T14:25:55.618Z,8.30
2022-11-28T14:29:00.141Z,8.30
2022-11-28T14:35:52.422Z,8.30
2022-11-28T14:39:34.070Z,8.30
2022-11-28T14:42:59.610Z,8.30
2022-11-28T14:46:31.816Z,8.30
2022-11-28T14:49:33.694Z,8.20
2022-11-28T14:52:43.462Z,8.20
2022-11-28T14:55:47.490Z,8.30
2022-11-28T14:58:50.886Z,8.30
2022-11-28T15:02:04.122Z,8.30
2022-11-28T15:05:22.844Z,8.30
2022-11-28T15:08:48.846Z,8.30
2022-11-28T15:12:40.255Z,8.30
2022-11-28T15:15:50.046Z,8.20
2022-11-28T15:18:57.976Z,8.20
2022-11-28T15:22:00.836Z,8.20
2022-11-28T15:25:02.661Z,8.20
2022-11-28T15:28:15.370Z,8.20
2022-11-28T15:31:22.387Z,8.20
2022-11-28T15:34:35.834Z,8.20
2022-11-28T15:37:38.425Z,8.20
2022-11-28T15:40:47.867Z,8.20
2022-11-28T15:43:49.811Z,8.20
2022-11-28T15:46:52.445Z,8.20
2022-11-28T15:50:20.008Z,8.20
2022-11-28T15:53:23.188Z,8.20
2022-11-28T15:56:25.304Z,8.10
2022-11-28T15:59:28.549Z,8.10
2022-11-28T16:02:36.364Z,8.10
2022-11-28T16:05:39.220Z,8.10
2022-11-28T16:08:56.645Z,8.10
2022-11-28T16:11:58.493Z,8.10
2022-11-28T16:15:05.090Z,8.20
2022-11-28T16:18:07.076Z,8.10
2022-11-28T16:21:13.304Z,8.20
2022-11-28T16:24:35.327Z,8.10
2022-11-28T16:27:41.692Z,8.10
2022-11-28T16:30:47.852Z,8.20
2022-11-28T16:33:50.282Z,8.20
2022-11-28T16:36:52.095Z,8.10
2022-11-28T16:40:21.920Z,8.10
2022-11-28T16:43:32.222Z,8.10
2022-11-28T16:46:40.635Z,8.10
2022-11-28T16:50:03.413Z,8.10
2022-11-28T16:53:05.475Z,8.20
2022-11-28T16:56:23.237Z,8.10
2022-11-28T16:59:25.743Z,8.20
2022-11-28T17:02:27.443Z,8.10
2022-11-28T17:05:29.428Z,8.10
2022-11-28T17:08:31.096Z,8.10
2022-11-28T17:11:38.580Z,8.10
2022-11-28T17:14:40.443Z,8.20
2022-11-28T17:17:42.347Z,8.20
2022-11-28T17:20:44.048Z,8.20
2022-11-28T17:23:45.814Z,8.20
2022-11-28T17:26:48.251Z,8.20
2022-11-28T17:29:49.892Z,8.20
2022-11-28T17:32:52.079Z,8.20
2022-11-28T17:35:55.678Z,8.20
2022-11-28T17:39:01.033Z,8.20
2022-11-28T17:42:06.845Z,8.20
2022-11-28T17:45:15.258Z,8.20
2022-11-28T17:48:18.218Z,8.20
2022-11-28T17:51:20.197Z,8.20
2022-11-28T17:54:24.341Z,8.30
2022-11-28T17:57:27.005Z,8.30
2022-11-28T18:00:29.311Z,8.20
2022-11-28T18:03:31.025Z,8.20
2022-11-28T18:06:32.889Z,8.30
2022-11-28T18:09:34.642Z,8.20
2022-11-28T18:12:37.036Z,8.30
2022-11-28T18:15:39.649Z,8.20
2022-11-28T18:18:41.957Z,8.30
2022-11-28T18:21:44.545Z,8.30
2022-11-28T18:24:46.312Z,8.30
2022-11-28T18:27:48.307Z,8.30
2022-11-28T18:30:50.321Z,8.30
2022-11-28T18:33:58.771Z,8.30
2022-11-28T18:37:03.384Z,8.30
2022-11-28T18:40:09.365Z,8.30
2022-11-28T18:43:12.294Z,8.30
2022-11-28T18:46:21.137Z,8.30
2022-11-28T18:49:23.663Z,8.30
2022-11-28T18:52:25.428Z,8.40
2022-11-28T18:55:27.094Z,8.40
2022-11-28T18:58:29.777Z,8.40
2022-11-28T19:01:34.210Z,8.40
2022-11-28T19:04:36.695Z,8.40
2022-11-28T19:07:38.487Z,8.40
2022-11-28T19:10:40.354Z,8.40
2022-11-28T19:13:44.276Z,8.40
2022-11-28T19:16:46.827Z,8.40
2022-11-28T19:19:50.916Z,8.40
2022-11-28T19:22:53.065Z,8.40
2022-11-28T19:25:55.023Z,8.40
2022-11-28T19:28:59.493Z,8.50
2022-11-28T19:32:01.398Z,8.40
2022-11-28T19:35:03.487Z,8.40
2022-11-28T19:38:05.284Z,8.40
2022-11-28T19:41:09.111Z,8.40
2022-11-28T19:44:12.249Z,8.50
2022-11-28T19:47:13.905Z,8.50
2022-11-28T19:50:15.716Z,8.50
2022-11-28T19:53:18.090Z,8.40
2022-11-28T19:56:22.564Z,8.40
2022-11-28T19:59:24.431Z,8.50
2022-11-28T20:02:26.206Z,8.50
2022-11-28T20:05:31.088Z,8.50
2022-11-28T20:08:32.809Z,8.50
2022-11-28T20:11:36.252Z,8.50
2022-11-28T20:14:39.139Z,8.50
2022-11-28T20:17:41.134Z,8.50
2022-11-28T20:20:42.800Z,8.50
2022-11-28T20:23:51.282Z,8.50
2022-11-28T20:26:53.042Z,8.50
2022-11-28T20:29:55.560Z,8.40
2022-11-28T20:32:57.434Z,8.50
2022-11-28T20:36:08.093Z,8.50
2022-11-28T20:39:11.759Z,8.50
2022-11-28T20:42:13.442Z,8.50
2022-11-28T20:45:15.120Z,8.50
2022-11-28T20:48:16.900Z,8.50
2022-11-28T20:51:24.872Z,8.50
2022-11-28T20:54:26.702Z,8.50
2022-11-28T20:57:28.338Z,8.50
2022-11-28T21:00:29.986Z,8.50
2022-11-28T21:03:32.172Z,8.50
2022-11-28T21:06:36.156Z,8.40
2022-11-28T21:09:37.843Z,8.50
2022-11-28T21:12:39.486Z,8.50
2022-11-28T21:15:45.429Z,8.50
2022-11-28T21:18:47.508Z,8.50
2022-11-28T21:21:49.214Z,8.60
2022-11-28T21:24:51.211Z,8.50
2022-11-28T21:27:52.856Z,8.50
2022-11-28T21:30:54.507Z,8.50
2022-11-28T21:33:57.646Z,8.50
2022-11-28T21:36:59.844Z,8.50
2022-11-28T21:40:01.504Z,8.50
2022-11-28T21:43:03.363Z,8.50
2022-11-28T21:46:07.146Z,8.50
2022-11-28T21:49:08.930Z,8.50
2022-11-28T21:52:15.908Z,8.50
2022-11-28T21:55:19.274Z,8.50
2022-11-28T21:58:26.607Z,8.50
2022-11-28T22:01:29.159Z,8.50
2022-11-28T22:04:31.043Z,8.50
2022-11-28T22:07:35.828Z,8.50
2022-11-28T22:10:38.063Z,8.50
2022-11-28T22:13:42.296Z,8.50
2022-11-28T22:16:44.167Z,8.50
2022-11-28T22:19:46.132Z,8.50
2022-11-28T22:22:49.420Z,8.50
2022-11-28T22:25:52.372Z,8.60
2022-11-28T22:28:54.251Z,8.60
2022-11-28T22:31:58.064Z,8.60
2022-11-28T22:34:59.968Z,8.50
2022-11-28T22:38:01.852Z,8.60
2022-11-28T22:41:11.561Z,8.60
2022-11-28T22:44:13.394Z,8.50
2022-11-28T22:47:15.328Z,8.50
2022-11-28T22:50:17.510Z,8.50
2022-11-28T22:53:19.595Z,8.50
2022-11-28T22:56:21.842Z,8.50
2022-11-28T22:59:23.599Z,8.60
2022-11-28T23:02:25.486Z,8.50
2022-11-28T23:05:28.276Z,8.50
2022-11-28T23:08:30.075Z,8.50
2022-11-28T23:11:34.278Z,8.50
2022-11-28T23:14:36.257Z,8.50
2022-11-28T23:17:38.327Z,8.50
2022-11-28T23:20:40.014Z,8.50
2022-11-28T23:23:44.018Z,8.50
2022-11-28T23:26:47.255Z,8.50
2022-11-28T23:29:48.947Z,8.50
2022-11-28T23:32:50.672Z,8.50
2022-11-28T23:35:52.645Z,8.50
2022-11-28T23:38:56.456Z,8.50
2022-11-28T23:41:59.766Z,8.50
2022-11-28T23:45:01.549Z,8.50
2022-11-28T23:48:03.412Z,8.50
2022-11-28T23:51:06.242Z,8.50
2022-11-28T23:54:09.979Z,8.50
2022-11-28T23:57:11.676Z,8.60
